Time,TemperatureF,DewpointF,PressureIn,WindDirection,WindDirectionDegrees,WindSpeedMPH,WindSpeedGustMPH,Humidity,HourlyPrecipIn,Conditions,Clouds,dailyrainin,SoftwareType,DateUTC
2013-10-11 00:14:00,42.4,41.0,24.68,West,276,21.0,43.0,93,0.00,,,0.38,weatherlink.com 1.10,2013-10-11 06:14:00,
2013-10-11 00:29:00,41.9,40.0,24.69,WNW,284,12.0,42.0,94,0.00,,,0.38,weatherlink.com 1.10,2013-10-11 06:29:00,
2013-10-11 00:44:00,41.2,40.0,24.69,WSW,253,34.0,42.0,94,0.01,,,0.39,weatherlink.com 1.10,2013-10-11 06:44:00,
2013-10-11 00:59:00,41.2,40.0,24.69,WNW,285,25.0,40.0,94,0.02,,,0.40,weatherlink.com 1.10,2013-10-11 06:59:00,
2013-10-11 01:14:00,41.1,40.0,24.69,NW,310,31.0,50.0,95,0.04,,,0.42,weatherlink.com 1.10,2013-10-11 07:14:00,
2013-10-11 01:29:00,41.9,41.0,24.68,West,272,21.0,31.0,95,0.09,,,0.47,weatherlink.com 1.10,2013-10-11 07:29:00,
2013-10-11 01:44:00,42.4,41.0,24.69,West,259,20.0,34.0,95,0.12,,,0.51,weatherlink.com 1.10,2013-10-11 07:44:00,
2013-10-11 01:59:00,42.8,42.0,24.70,West,274,21.0,37.0,95,0.16,,,0.56,weatherlink.com 1.10,2013-10-11 07:59:00,
2013-10-11 02:14:00,42.8,42.0,24.69,WNW,282,18.0,48.0,95,0.15,,,0.58,weatherlink.com 1.10,2013-10-11 08:14:00,
2013-10-11 02:29:00,43.2,42.0,24.70,NW,321,24.0,46.0,94,0.11,,,0.58,weatherlink.com 1.10,2013-10-11 08:29:00,
2013-10-11 02:44:00,43.3,42.0,24.71,West,263,16.0,40.0,94,0.07,,,0.58,weatherlink.com 1.10,2013-10-11 08:44:00,
2013-10-11 02:59:00,43.5,42.0,24.72,WNW,293,16.0,34.0,94,0.03,,,0.59,weatherlink.com 1.10,2013-10-11 08:59:00,
2013-10-11 03:14:00,43.3,42.0,24.73,WNW,285,23.0,35.0,93,0.03,,,0.61,weatherlink.com 1.10,2013-10-11 09:14:00,
2013-10-11 03:29:00,43.2,41.0,24.73,SW,231,31.0,35.0,92,0.03,,,0.61,weatherlink.com 1.10,2013-10-11 09:29:00,
2013-10-11 03:44:00,43.3,41.0,24.74,West,267,17.0,39.0,92,0.03,,,0.61,weatherlink.com 1.10,2013-10-11 09:44:00,
2013-10-11 03:59:00,43.3,41.0,24.75,WNW,297,19.0,32.0,92,0.02,,,0.61,weatherlink.com 1.10,2013-10-11 09:59:00,
2013-10-11 04:14:00,43.7,42.0,24.76,NW,321,17.0,33.0,92,0.00,,,0.61,weatherlink.com 1.10,2013-10-11 10:14:00,
2013-10-11 04:29:00,44.0,42.0,24.77,WNW,283,17.0,29.0,92,0.00,,,0.61,weatherlink.com 1.10,2013-10-11 10:29:00,
2013-10-11 04:44:00,44.3,42.0,24.77,West,273,18.0,31.0,91,0.00,,,0.61,weatherlink.com 1.10,2013-10-11 10:44:00,
2013-10-11 04:59:00,44.4,42.0,24.78,WNW,284,17.0,35.0,90,0.00,,,0.61,weatherlink.com 1.10,2013-10-11 10:59:00,
2013-10-11 05:14:00,44.5,42.0,24.80,WNW,293,10.0,31.0,89,0.00,,,0.61,weatherlink.com 1.10,2013-10-11 11:14:00,
2013-10-11 05:29:00,44.6,41.0,24.80,NW,314,19.0,32.0,88,0.00,,,0.61,weatherlink.com 1.10,2013-10-11 11:29:00,
2013-10-11 05:44:00,44.9,41.0,24.82,NW,326,14.0,32.0,86,0.00,,,0.61,weatherlink.com 1.10,2013-10-11 11:44:00,
2013-10-11 05:59:00,44.6,41.0,24.84,NW,304,21.0,32.0,86,0.00,,,0.61,weatherlink.com 1.10,2013-10-11 11:59:00,
2013-10-11 06:14:00,44.4,41.0,24.84,WNW,297,22.0,33.0,86,0.00,,,0.61,weatherlink.com 1.10,2013-10-11 12:14:00,
2013-10-11 06:29:00,44.5,40.0,24.86,NW,321,12.0,27.0,85,0.00,,,0.61,weatherlink.com 1.10,2013-10-11 12:29:00,
2013-10-11 06:44:00,44.5,40.0,24.88,NW,306,10.0,29.0,85,0.00,,,0.61,weatherlink.com 1.10,2013-10-11 12:44:00,
2013-10-11 06:59:00,44.4,40.0,24.89,NNW,341,13.0,32.0,85,0.00,,,0.61,weatherlink.com 1.10,2013-10-11 12:59:00,
2013-10-11 07:14:00,44.2,40.0,24.91,NW,314,15.0,26.0,86,0.00,,,0.61,weatherlink.com 1.10,2013-10-11 13:14:00,
2013-10-11 07:29:00,44.1,40.0,24.91,NW,306,21.0,28.0,84,0.00,,,0.61,weatherlink.com 1.10,2013-10-11 13:29:00,
2013-10-11 07:44:00,44.2,40.0,24.92,NNW,333,18.0,38.0,85,0.00,,,0.61,weatherlink.com 1.10,2013-10-11 13:44:00,
2013-10-11 07:59:00,44.2,40.0,24.93,NNW,330,23.0,35.0,84,0.00,,,0.61,weatherlink.com 1.10,2013-10-11 13:59:00,
2013-10-11 08:14:00,44.3,39.0,24.94,NW,311,16.0,36.0,83,0.00,,,0.61,weatherlink.com 1.10,2013-10-11 14:14:00,
2013-10-11 08:29:00,44.9,39.0,24.95,NNW,340,31.0,34.0,81,0.00,,,0.61,weatherlink.com 1.10,2013-10-11 14:29:00,
2013-10-11 08:44:00,45.5,39.0,24.97,NW,309,20.0,29.0,79,0.00,,,0.61,weatherlink.com 1.10,2013-10-11 14:44:00,
2013-10-11 08:59:00,45.4,39.0,24.98,NW,321,22.0,33.0,79,0.00,,,0.61,weatherlink.com 1.10,2013-10-11 14:59:00,
2013-10-11 09:14:00,45.6,39.0,25.00,North,9,16.0,34.0,79,0.00,,,0.61,weatherlink.com 1.10,2013-10-11 15:14:00,
2013-10-11 09:29:00,45.1,39.0,25.01,NNW,330,23.0,31.0,78,0.00,,,0.61,weatherlink.com 1.10,2013-10-11 15:29:00,
2013-10-11 09:45:00,45.8,39.0,25.02,NW,323,19.0,36.0,78,0.00,,,0.61,weatherlink.com 1.10,2013-10-11 15:45:00,
2013-10-11 10:00:00,46.4,40.0,25.03,NNW,341,18.0,32.0,77,0.00,,,0.61,weatherlink.com 1.10,2013-10-11 16:00:00,
2013-10-11 10:15:00,46.3,40.0,25.04,NW,305,17.0,32.0,78,0.00,,,0.61,weatherlink.com 1.10,2013-10-11 16:15:00,
2013-10-11 10:30:00,46.9,39.0,25.05,NW,310,15.0,33.0,75,0.00,,,0.61,weatherlink.com 1.10,2013-10-11 16:30:00,
2013-10-11 10:45:00,47.9,39.0,25.05,NW,313,20.0,37.0,72,0.00,,,0.61,weatherlink.com 1.10,2013-10-11 16:45:00,
2013-10-11 11:00:00,48.1,40.0,25.04,NNW,334,22.0,37.0,73,0.00,,,0.61,weatherlink.com 1.10,2013-10-11 17:00:00,
2013-10-11 11:15:00,49.2,40.0,25.05,WNW,294,25.0,31.0,71,0.00,,,0.61,weatherlink.com 1.10,2013-10-11 17:15:00,
2013-10-11 11:30:00,49.3,38.0,25.06,NNW,339,20.0,37.0,66,0.00,,,0.61,weatherlink.com 1.10,2013-10-11 17:30:00,
2013-10-11 11:45:00,49.5,39.0,25.07,NNW,338,28.0,37.0,67,0.00,,,0.61,weatherlink.com 1.10,2013-10-11 17:45:00,
2013-10-11 12:00:00,49.6,38.0,25.08,NW,316,16.0,35.0,65,0.00,,,0.61,weatherlink.com 1.10,2013-10-11 18:00:00,
2013-10-11 12:15:00,49.6,39.0,25.09,NW,322,13.0,28.0,67,0.00,,,0.61,weatherlink.com 1.10,2013-10-11 18:15:00,
2013-10-11 12:30:00,50.0,38.0,25.09,NNW,339,22.0,28.0,64,0.00,,,0.61,weatherlink.com 1.10,2013-10-11 18:30:00,
2013-10-11 12:45:00,50.6,37.0,25.09,NW,326,23.0,30.0,60,0.00,,,0.61,weatherlink.com 1.10,2013-10-11 18:45:00,
2013-10-11 13:00:00,51.1,37.0,25.09,NNW,347,15.0,28.0,60,0.00,,,0.61,weatherlink.com 1.10,2013-10-11 19:00:00,
2013-10-11 13:15:00,51.4,37.0,25.09,NW,320,13.0,29.0,59,0.00,,,0.61,weatherlink.com 1.10,2013-10-11 19:15:00,
2013-10-11 13:30:00,51.9,37.0,25.09,NNW,332,19.0,25.0,58,0.00,,,0.61,weatherlink.com 1.10,2013-10-11 19:30:00,
2013-10-11 13:45:00,52.7,38.0,25.09,NNW,334,15.0,21.0,58,0.00,,,0.61,weatherlink.com 1.10,2013-10-11 19:45:00,
2013-10-11 14:00:00,52.4,39.0,25.09,NNW,339,16.0,23.0,60,0.00,,,0.61,weatherlink.com 1.10,2013-10-11 20:00:00,
2013-10-11 14:15:00,52.9,40.0,25.09,NW,319,13.0,21.0,61,0.00,,,0.61,weatherlink.com 1.10,2013-10-11 20:15:00,
2013-10-11 14:30:00,52.6,39.0,25.10,NW,324,15.0,19.0,61,0.00,,,0.61,weatherlink.com 1.10,2013-10-11 20:30:00,
2013-10-11 14:45:00,51.4,39.0,25.11,NNW,343,14.0,22.0,62,0.00,,,0.61,weatherlink.com 1.10,2013-10-11 20:45:00,
2013-10-11 15:00:00,52.6,40.0,25.11,WNW,297,12.0,22.0,62,0.00,,,0.61,weatherlink.com 1.10,2013-10-11 21:00:00,
2013-10-11 15:15:00,53.2,39.0,25.12,NNW,335,13.0,18.0,59,0.00,,,0.61,weatherlink.com 1.10,2013-10-11 21:15:00,
2013-10-11 15:30:00,51.2,39.0,25.13,NNW,343,13.0,18.0,63,0.00,,,0.61,weatherlink.com 1.10,2013-10-11 21:30:00,
2013-10-11 15:45:00,51.0,40.0,25.14,NNW,338,14.0,18.0,65,0.00,,,0.61,weatherlink.com 1.10,2013-10-11 21:45:00,
2013-10-11 16:00:00,51.3,39.0,25.15,NW,324,13.0,16.0,64,0.00,,,0.61,weatherlink.com 1.10,2013-10-11 22:00:00,
2013-10-11 16:15:00,50.8,39.0,25.15,NNW,345,9.0,15.0,65,0.00,,,0.61,weatherlink.com 1.10,2013-10-11 22:15:00,
2013-10-11 16:30:00,50.2,39.0,25.16,NNW,345,10.0,17.0,66,0.00,,,0.61,weatherlink.com 1.10,2013-10-11 22:30:00,
2013-10-11 16:45:00,-999.0,-99.9,25.16,North,-999,-999.0,-999.0,-999,0.00,,,0.61,weatherlink.com 1.10,2013-10-11 22:45:00,
2013-10-11 17:00:00,-999.0,-99.9,25.16,North,-999,-999.0,-999.0,-999,0.00,,,0.61,weatherlink.com 1.10,2013-10-11 23:00:00,
2013-10-11 17:16:00,-999.0,-99.9,25.17,North,-999,-999.0,-999.0,-999,0.00,,,0.61,weatherlink.com 1.10,2013-10-11 23:16:00,
2013-10-11 17:31:00,-999.0,-99.9,25.18,North,-999,-999.0,-999.0,-999,0.00,,,0.61,weatherlink.com 1.10,2013-10-11 23:31:00,
2013-10-11 17:46:00,-999.0,-99.9,25.18,North,-999,-999.0,-999.0,-999,0.00,,,0.61,weatherlink.com 1.10,2013-10-11 23:46:00,
2013-10-11 18:01:00,-999.0,-99.9,25.18,North,-999,-999.0,-999.0,-999,0.00,,,0.61,weatherlink.com 1.10,2013-10-12 00:01:00,
2013-10-11 18:16:00,-999.0,-99.9,25.19,North,-999,-999.0,-999.0,-999,0.00,,,0.61,weatherlink.com 1.10,2013-10-12 00:16:00,
2013-10-11 18:31:00,-999.0,-99.9,25.20,North,-999,-999.0,-999.0,-999,0.00,,,0.00,weatherlink.com 1.10,2013-10-12 00:31:00,
2013-10-11 18:46:00,-999.0,-99.9,25.20,North,-999,-999.0,-999.0,-999,0.00,,,0.00,weatherlink.com 1.10,2013-10-12 00:46:00,
2013-10-11 19:01:00,-999.0,-99.9,25.20,North,-999,-999.0,-999.0,-999,0.00,,,0.00,weatherlink.com 1.10,2013-10-12 01:01:00,
2013-10-11 19:16:00,-999.0,-99.9,25.21,North,-999,-999.0,-999.0,-999,0.00,,,0.00,weatherlink.com 1.10,2013-10-12 01:16:00,
2013-10-11 19:31:00,-999.0,-99.9,25.21,North,-999,-999.0,-999.0,-999,0.00,,,0.00,weatherlink.com 1.10,2013-10-12 01:31:00,
2013-10-11 19:46:00,-999.0,-99.9,25.21,North,-999,-999.0,-999.0,-999,0.00,,,0.00,weatherlink.com 1.10,2013-10-12 01:46:00,
2013-10-11 20:01:00,-999.0,-99.9,25.22,North,-999,-999.0,-999.0,-999,0.00,,,0.00,weatherlink.com 1.10,2013-10-12 02:01:00,
2013-10-11 20:16:00,-999.0,-99.9,25.22,North,-999,-999.0,-999.0,-999,0.00,,,0.00,weatherlink.com 1.10,2013-10-12 02:16:00,
2013-10-11 20:31:00,-999.0,-99.9,25.23,North,-999,-999.0,-999.0,-999,0.00,,,0.00,weatherlink.com 1.10,2013-10-12 02:31:00,
2013-10-11 20:47:00,-999.0,-99.9,25.24,North,-999,-999.0,-999.0,-999,0.00,,,0.00,weatherlink.com 1.10,2013-10-12 02:47:00,
2013-10-11 21:02:00,-999.0,-99.9,25.24,North,-999,-999.0,-999.0,-999,0.00,,,0.00,weatherlink.com 1.10,2013-10-12 03:02:00,
2013-10-11 21:17:00,-999.0,-99.9,25.24,North,-999,-999.0,-999.0,-999,0.00,,,0.00,weatherlink.com 1.10,2013-10-12 03:17:00,
2013-10-11 21:32:00,-999.0,-99.9,25.25,North,-999,-999.0,-999.0,-999,0.00,,,0.00,weatherlink.com 1.10,2013-10-12 03:32:00,
2013-10-11 21:47:00,-999.0,-99.9,25.26,North,-999,-999.0,-999.0,-999,0.00,,,0.00,weatherlink.com 1.10,2013-10-12 03:47:00,
2013-10-11 22:02:00,41.4,36.0,25.26,West,266,0.0,5.0,82,0.00,,,0.00,weatherlink.com 1.10,2013-10-12 04:02:00,
2013-10-11 22:17:00,41.6,37.0,25.27,West,276,1.0,4.0,82,0.00,,,0.00,weatherlink.com 1.10,2013-10-12 04:17:00,
2013-10-11 22:32:00,41.3,36.0,25.27,NNE,27,0.0,4.0,82,0.00,,,0.00,weatherlink.com 1.10,2013-10-12 04:32:00,
2013-10-11 22:47:00,41.0,36.0,25.28,NNW,338,4.0,7.0,83,0.00,,,0.00,weatherlink.com 1.10,2013-10-12 04:47:00,
2013-10-11 23:02:00,40.7,35.0,25.28,NNW,332,9.0,9.0,81,0.00,,,0.00,weatherlink.com 1.10,2013-10-12 05:02:00,
2013-10-11 23:17:00,41.2,36.0,25.28,NNW,330,7.0,12.0,80,0.00,,,0.00,weatherlink.com 1.10,2013-10-12 05:17:00,
2013-10-11 23:32:00,41.8,35.0,25.29,WNW,283,3.0,9.0,78,0.00,,,0.00,weatherlink.com 1.10,2013-10-12 05:32:00,
2013-10-11 23:47:00,41.8,35.0,25.29,NNW,338,3.0,10.0,77,0.00,,,0.00,weatherlink.com 1.10,2013-10-12 05:47:00,